Time;durP1;ratioP1;P1;durP2;ratioP2;P2;SDS_P1;SDS_P2;PMS_P1;PMS_P2;Temp;Humidity;BMP_temperature;BMP_pressure;BME280_temperature;BME280_humidity;BME280_pressure;Samples;Min_cycle;Max_cycle;Signal;HPM_P1;HPM_P2
2022/08/29 00:00:56;;;;;;;4.57;2.40;;;23.50;57.40;;;;;;2268835;56;21015;-72
2022/08/29 00:03:22;;;;;;;3.45;2.12;;;23.40;57.50;;;;;;2271612;55;20972;-71
2022/08/29 00:05:49;;;;;;;3.42;1.75;;;23.40;57.50;;;;;;2265254;56;21015;-71
2022/08/29 00:08:16;;;;;;;3.53;2.03;;;23.40;57.50;;;;;;2260951;56;21012;-72
2022/08/29 00:10:42;;;;;;;3.15;1.90;;;23.30;57.40;;;;;;2267197;55;21005;-71
2022/08/29 00:13:09;;;;;;;3.80;1.90;;;23.30;57.40;;;;;;2273038;55;21112;-72
2022/08/29 00:15:36;;;;;;;4.22;2.00;;;23.30;57.40;;;;;;2492714;55;20979;-74
2022/08/29 00:18:02;;;;;;;3.42;2.00;;;23.20;57.40;;;;;;2266479;55;21781;-71
2022/08/29 00:20:30;;;;;;;3.45;2.00;;;23.20;57.40;;;;;;2244324;56;20968;-71
2022/08/29 00:22:57;;;;;;;7.62;2.20;;;23.10;57.30;;;;;;2268607;56;20953;-72
2022/08/29 00:25:23;;;;;;;3.75;2.42;;;23.10;57.30;;;;;;2486693;55;21031;-70
2022/08/29 00:27:49;;;;;;;10.35;2.87;;;23.10;57.60;;;;;;2270597;55;21457;-71
2022/08/29 00:30:16;;;;;;;4.85;2.30;;;23.00;57.60;;;;;;2338053;55;21830;-71
2022/08/29 00:32:42;;;;;;;3.72;2.15;;;22.90;57.60;;;;;;2265926;56;20940;-71
2022/08/29 00:35:11;;;;;;;3.53;2.20;;;22.90;57.60;;;;;;2266519;55;21023;-70
2022/08/29 00:37:44;;;;;;;3.72;2.15;;;22.90;57.60;;;;;;2266026;55;20999;-71
2022/08/29 00:40:13;;;;;;;4.28;2.00;;;22.90;57.60;;;;;;2267922;56;20941;-72
2022/08/29 00:42:39;;;;;;;4.45;2.42;;;22.80;57.60;;;;;;2488070;55;21084;-72
2022/08/29 00:45:07;;;;;;;3.95;2.35;;;22.70;57.60;;;;;;2269367;56;20973;-71
2022/08/29 00:47:36;;;;;;;3.92;2.00;;;22.70;57.60;;;;;;2293688;55;20965;-72
2022/08/29 00:50:02;;;;;;;3.53;2.17;;;22.70;57.60;;;;;;2267474;55;21489;-72
2022/08/29 00:52:36;;;;;;;3.85;2.35;;;22.60;57.70;;;;;;2268046;56;21370;-71
2022/08/29 00:55:08;;;;;;;3.37;2.33;;;22.60;57.80;;;;;;2384051;55;21040;-71
2022/08/29 00:57:35;;;;;;;4.45;1.95;;;22.60;57.80;;;;;;2260761;55;21027;-73
2022/08/29 01:00:02;;;;;;;3.45;1.95;;;22.50;57.70;;;;;;2267493;55;21413;-71
2022/08/29 01:02:28;;;;;;;3.65;1.90;;;22.50;57.80;;;;;;2265082;56;21005;-71
2022/08/29 01:04:54;;;;;;;4.68;2.30;;;22.50;57.90;;;;;;2266204;55;21044;-73
2022/08/29 01:07:21;;;;;;;3.45;2.30;;;22.40;57.90;;;;;;2266052;55;20992;-71
2022/08/29 01:09:48;;;;;;;3.53;2.05;;;22.40;58.00;;;;;;2268852;55;20944;-73
2022/08/29 01:12:14;;;;;;;4.32;2.03;;;22.40;57.90;;;;;;2261228;56;21811;-71
2022/08/29 01:14:51;;;;;;;4.45;2.10;;;22.30;57.80;;;;;;2260557;56;21016;-71
2022/08/29 01:17:23;;;;;;;3.60;2.17;;;22.30;58.00;;;;;;2273030;55;20940;-71
2022/08/29 01:19:54;;;;;;;;;;;22.20;58.00;;;;;;2268688;56;21004;-71
2022/08/29 01:22:59;;;;;;;2.60;1.60;;;22.20;57.90;;;;;;2264323;56;20435;-73
2022/08/29 01:25:28;;;;;;;2.92;1.67;;;22.20;57.90;;;;;;2268897;55;21779;-71
2022/08/29 01:28:02;;;;;;;2.90;1.73;;;22.20;58.00;;;;;;2241719;56;21119;-72
2022/08/29 01:30:28;;;;;;;3.33;1.90;;;22.10;58.00;;;;;;2490114;55;21435;-71
2022/08/29 01:32:56;;;;;;;3.40;2.20;;;22.10;58.00;;;;;;2265997;55;20920;-71
2022/08/29 01:35:23;;;;;;;3.90;2.00;;;22.00;58.00;;;;;;2258989;55;21316;-71
2022/08/29 01:37:50;;;;;;;4.15;2.28;;;22.00;58.00;;;;;;2281222;55;21012;-72
2022/08/29 01:40:16;;;;;;;5.05;2.50;;;22.00;58.00;;;;;;2486486;55;20985;-70
2022/08/29 01:42:43;;;;;;;3.30;1.95;;;21.90;58.10;;;;;;2273725;55;20932;-71
2022/08/29 01:45:09;;;;;;;3.65;2.17;;;21.90;58.20;;;;;;2335333;55;21053;-72
2022/08/29 01:47:37;;;;;;;3.87;2.25;;;21.90;58.30;;;;;;2265121;56;21016;-72
2022/08/29 01:50:06;;;;;;;3.30;1.90;;;21.80;58.20;;;;;;2266570;56;20945;-71
2022/08/29 01:52:34;;;;;;;3.85;2.53;;;21.80;58.30;;;;;;2488573;55;20928;-71
2022/08/29 01:55:00;;;;;;;4.75;2.67;;;21.80;58.40;;;;;;2264251;55;21088;-72
2022/08/29 01:57:27;;;;;;;4.22;2.42;;;21.80;58.70;;;;;;2264209;56;20990;-71
2022/08/29 01:59:53;;;;;;;4.43;2.42;;;21.70;58.60;;;;;;2267006;56;21413;-71
2022/08/29 02:02:25;;;;;;;5.28;2.40;;;21.70;58.60;;;;;;2410926;55;20960;-71
2022/08/29 02:04:52;;;;;;;3.87;2.33;;;21.70;58.70;;;;;;2487671;55;21028;-69
2022/08/29 02:07:20;;;;;;;4.07;2.30;;;21.70;58.70;;;;;;2265363;55;21512;-71
2022/08/29 02:09:46;;;;;;;3.67;2.15;;;21.60;58.60;;;;;;2267952;55;20967;-71
2022/08/29 02:12:13;;;;;;;3.58;2.40;;;21.60;58.50;;;;;;2269600;55;20944;-70
2022/08/29 02:14:40;;;;;;;3.55;2.30;;;21.60;58.50;;;;;;2264970;55;21095;-71
2022/08/29 02:17:06;;;;;;;3.35;1.77;;;21.60;58.60;;;;;;2265149;55;21016;-71
2022/08/29 02:19:32;;;;;;;4.03;2.60;;;21.60;58.60;;;;;;2264039;55;21040;-70
2022/08/29 02:21:59;;;;;;;3.97;2.75;;;21.50;58.60;;;;;;2261480;56;21815;-72
2022/08/29 02:24:25;;;;;;;3.80;2.30;;;21.50;58.70;;;;;;2264819;56;21454;-72
2022/08/29 02:26:53;;;;;;;4.10;2.78;;;21.50;58.70;;;;;;2263597;56;21038;-71
2022/08/29 02:29:43;;;;;;;3.60;2.47;;;21.50;58.80;;;;;;2264703;56;21020;-71
2022/08/29 02:32:11;;;;;;;3.30;2.10;;;21.50;58.90;;;;;;2262260;56;21008;-71
2022/08/29 02:34:38;;;;;;;2.87;1.83;;;21.40;58.70;;;;;;2260940;55;21023;-71
2022/08/29 02:37:04;;;;;;;3.97;2.22;;;21.40;58.70;;;;;;2270495;55;21095;-70
2022/08/29 02:39:30;;;;;;;4.25;2.45;;;21.40;58.70;;;;;;2358284;55;20992;-72
2022/08/29 02:42:01;;;;;;;4.65;2.25;;;21.40;58.80;;;;;;2267149;55;21080;-71
2022/08/29 02:44:30;;;;;;;3.55;2.08;;;21.40;58.70;;;;;;2266939;56;20963;-71
2022/08/29 02:46:56;;;;;;;4.00;2.25;;;21.30;58.70;;;;;;2263390;56;20980;-71
2022/08/29 02:49:22;;;;;;;3.35;2.25;;;21.30;58.70;;;;;;2264421;55;21054;-70
2022/08/29 02:51:49;;;;;;;4.22;2.05;;;21.30;58.80;;;;;;2273299;56;20932;-70
2022/08/29 02:54:16;;;;;;;3.78;2.40;;;21.30;58.80;;;;;;2263319;56;21067;-71
2022/08/29 02:56:42;;;;;;;3.95;2.53;;;21.30;58.90;;;;;;2266271;56;21028;-71
2022/08/29 02:59:08;;;;;;;4.03;2.35;;;21.20;58.80;;;;;;2455270;55;20993;-71
2022/08/29 03:01:37;;;;;;;4.05;2.40;;;21.20;58.80;;;;;;2264551;56;21015;-73
2022/08/29 03:04:03;;;;;;;3.83;2.10;;;21.20;58.90;;;;;;2264874;55;21469;-71
2022/08/29 03:06:29;;;;;;;4.78;2.50;;;21.20;58.90;;;;;;2482193;55;20997;-73
2022/08/29 03:08:56;;;;;;;4.25;2.33;;;21.10;58.80;;;;;;2264515;55;21010;-72
2022/08/29 03:11:22;;;;;;;4.10;2.28;;;21.10;58.80;;;;;;2266406;55;21032;-71
2022/08/29 03:13:49;;;;;;;3.17;2.00;;;21.10;58.70;;;;;;2263694;56;21064;-71
2022/08/29 03:16:15;;;;;;;4.93;2.33;;;21.10;58.70;;;;;;2264879;55;20935;-72
2022/08/29 03:18:43;;;;;;;4.10;2.47;;;21.10;58.70;;;;;;2262966;55;21547;-71
2022/08/29 03:21:19;;;;;;;3.75;2.28;;;21.00;58.70;;;;;;2263044;56;21004;-73
2022/08/29 03:23:46;;;;;;;3.70;2.10;;;21.00;58.80;;;;;;2269687;55;21956;-71
2022/08/29 03:26:12;;;;;;;3.78;2.30;;;21.00;58.70;;;;;;2357338;55;21035;-71
2022/08/29 03:28:39;;;;;;;4.95;2.42;;;20.90;58.80;;;;;;2329504;55;20916;-71
2022/08/29 03:31:05;;;;;;;4.20;2.33;;;20.90;58.80;;;;;;2268541;55;21041;-71
2022/08/29 03:33:32;;;;;;;3.30;2.20;;;20.90;58.90;;;;;;2265261;56;20990;-71
2022/08/29 03:35:59;;;;;;;4.28;2.20;;;20.80;58.80;;;;;;2265397;56;20949;-71
2022/08/29 03:38:25;;;;;;;4.37;2.40;;;20.80;58.80;;;;;;2266522;56;21493;-71
2022/08/29 03:40:52;;;;;;;3.92;2.72;;;20.80;58.80;;;;;;2260889;56;21467;-74
2022/08/29 03:43:20;;;;;;;3.90;2.55;;;20.80;59.60;;;;;;2268104;55;20959;-71
2022/08/29 03:45:48;;;;;;;3.60;2.33;;;20.80;59.00;;;;;;2258587;56;20945;-71
2022/08/29 03:48:14;;;;;;;4.50;2.30;;;20.70;59.50;;;;;;2266570;55;21056;-71
2022/08/29 03:50:41;;;;;;;3.17;2.05;;;20.70;58.90;;;;;;2266703;56;21015;-73
2022/08/29 03:53:07;;;;;;;4.15;2.10;;;20.70;58.90;;;;;;2268873;56;20969;-73
2022/08/29 03:55:34;;;;;;;3.80;2.55;;;20.70;58.90;;;;;;2473396;55;21949;-75
2022/08/29 03:58:02;;;;;;;3.50;2.25;;;20.70;58.90;;;;;;2261335;55;21319;-72
2022/08/29 04:00:28;;;;;;;4.75;2.35;;;20.70;58.90;;;;;;2268094;55;21080;-75
2022/08/29 04:02:57;;;;;;;4.25;2.53;;;20.60;58.90;;;;;;2262971;56;20948;-75
2022/08/29 04:05:24;;;;;;;3.47;2.35;;;20.60;58.90;;;;;;2266811;55;20933;-71
2022/08/29 04:07:55;;;;;;;4.32;2.37;;;20.60;58.90;;;;;;2263424;56;21178;-71
2022/08/29 04:10:26;;;;;;;3.55;2.15;;;20.50;58.90;;;;;;2263615;56;21049;-72
2022/08/29 04:12:52;;;;;;;3.28;2.15;;;20.50;58.90;;;;;;2264429;55;20971;-73
2022/08/29 04:15:20;;;;;;;3.42;2.05;;;20.50;58.90;;;;;;2485947;55;20981;-73
2022/08/29 04:17:46;;;;;;;4.15;2.20;;;20.50;59.00;;;;;;2261276;55;20925;-73
2022/08/29 04:20:13;;;;;;;3.58;2.37;;;20.50;59.00;;;;;;2384961;55;20984;-73
2022/08/29 04:22:41;;;;;;;3.78;2.47;;;20.40;58.90;;;;;;2265413;56;20960;-72
2022/08/29 04:25:10;;;;;;;4.25;2.37;;;20.40;58.90;;;;;;2263450;56;21028;-73
2022/08/29 04:27:36;;;;;;;3.45;2.10;;;20.40;58.90;;;;;;2262682;56;21072;-73
2022/08/29 04:30:05;;;;;;;3.67;2.37;;;20.40;58.90;;;;;;2258904;56;21849;-73
2022/08/29 04:32:31;;;;;;;5.55;2.78;;;20.30;58.80;;;;;;2262396;56;20928;-72
2022/08/29 04:34:57;;;;;;;3.40;2.30;;;20.30;58.90;;;;;;2263353;55;21509;-71
2022/08/29 04:37:24;;;;;;;4.00;2.47;;;20.30;59.00;;;;;;2263767;55;20975;-73
2022/08/29 04:39:53;;;;;;;3.65;2.47;;;20.20;59.10;;;;;;2491188;55;20960;-75
2022/08/29 04:42:20;;;;;;;4.05;2.60;;;20.20;59.10;;;;;;2266820;56;20997;-73
2022/08/29 04:44:46;;;;;;;4.62;2.37;;;20.20;59.10;;;;;;2265907;56;21064;-72
2022/08/29 04:47:13;;;;;;;3.97;2.70;;;20.10;59.10;;;;;;2269414;55;20961;-73
2022/08/29 04:49:41;;;;;;;4.57;3.08;;;20.10;59.10;;;;;;2264689;55;21583;-74
2022/08/29 04:52:08;;;;;;;5.95;3.12;;;20.10;59.30;;;;;;2385110;55;21032;-75
2022/08/29 04:54:34;;;;;;;4.75;2.60;;;20.10;59.40;;;;;;2261406;56;20924;-74
2022/08/29 04:57:02;;;;;;;3.92;2.60;;;20.10;59.50;;;;;;2483141;54;20945;-75
2022/08/29 04:59:28;;;;;;;4.68;3.00;;;20.00;59.30;;;;;;2267287;56;21068;-73
2022/08/29 05:01:56;;;;;;;3.55;2.28;;;20.00;59.30;;;;;;2271886;56;21017;-73
2022/08/29 05:04:22;;;;;;;4.60;2.45;;;20.00;59.30;;;;;;2356730;55;21130;-73
2022/08/29 05:06:48;;;;;;;4.20;2.22;;;20.00;59.30;;;;;;2342317;55;21036;-76
2022/08/29 05:09:15;;;;;;;3.65;2.40;;;20.00;59.30;;;;;;2264124;56;20988;-73
2022/08/29 05:11:42;;;;;;;4.95;2.53;;;20.00;59.20;;;;;;2334411;55;21482;-73
2022/08/29 05:14:08;;;;;;;6.37;3.10;;;20.00;59.30;;;;;;2476438;55;20992;-72
2022/08/29 05:16:36;;;;;;;3.70;2.00;;;20.00;59.30;;;;;;2262456;56;21027;-72
2022/08/29 05:19:04;;;;;;;3.97;1.90;;;20.00;59.30;;;;;;2264241;55;21036;-73
2022/08/29 05:21:32;;;;;;;3.50;2.00;;;19.90;59.30;;;;;;2269382;55;21055;-74
2022/08/29 05:23:58;;;;;;;3.37;2.12;;;19.90;59.30;;;;;;2267897;56;21071;-75
2022/08/29 05:26:30;;;;;;;5.90;2.30;;;19.90;59.40;;;;;;2264227;56;21707;-73
2022/08/29 05:28:56;;;;;;;4.00;2.03;;;19.90;59.40;;;;;;2487062;55;21079;-73
2022/08/29 05:31:22;;;;;;;3.80;1.98;;;19.90;59.40;;;;;;2265256;56;20967;-73
2022/08/29 05:33:51;;;;;;;3.28;1.95;;;19.90;59.30;;;;;;2265945;56;21462;-73
2022/08/29 05:36:21;;;;;;;3.65;2.28;;;19.90;59.30;;;;;;2262605;56;20936;-74
2022/08/29 05:38:47;;;;;;;4.78;2.17;;;19.90;59.30;;;;;;2419179;54;20924;-72
2022/08/29 05:41:13;;;;;;;3.62;2.15;;;19.90;59.30;;;;;;2269765;55;21028;-73
2022/08/29 05:43:39;;;;;;;3.22;1.73;;;19.90;59.30;;;;;;2262513;56;20956;-73
2022/08/29 05:46:06;;;;;;;3.12;1.80;;;19.80;59.20;;;;;;2272164;55;21840;-73
2022/08/29 05:48:33;;;;;;;4.15;1.77;;;19.80;59.30;;;;;;2286393;55;20995;-73
2022/08/29 05:50:59;;;;;;;4.37;2.00;;;19.80;59.50;;;;;;2266325;55;20995;-73
2022/08/29 05:53:25;;;;;;;3.72;1.92;;;19.70;59.60;;;;;;2266099;56;21048;-73
2022/08/29 05:55:52;;;;;;;3.60;2.10;;;19.80;59.80;;;;;;2268465;56;21449;-73
2022/08/29 05:58:18;;;;;;;6.22;2.50;;;19.80;59.90;;;;;;2258038;56;21026;-73
2022/08/29 06:00:45;;;;;;;4.45;2.15;;;19.80;60.00;;;;;;2266882;56;20984;-73
2022/08/29 06:03:11;;;;;;;4.20;2.55;;;19.80;60.10;;;;;;2262649;56;21496;-73
2022/08/29 06:05:38;;;;;;;7.62;2.53;;;19.80;60.10;;;;;;2265423;55;20970;-71
2022/08/29 06:08:04;;;;;;;3.72;2.08;;;19.80;60.10;;;;;;2260386;56;21016;-72
2022/08/29 06:10:31;;;;;;;4.12;2.20;;;19.80;60.10;;;;;;2341577;55;21363;-74
2022/08/29 06:12:57;;;;;;;4.55;2.17;;;19.80;60.00;;;;;;2272568;55;21059;-73
2022/08/29 06:15:28;;;;;;;4.53;2.22;;;19.80;60.00;;;;;;2264164;56;20973;-74
2022/08/29 06:17:57;;;;;;;4.07;2.30;;;19.90;60.10;;;;;;2262723;56;20932;-73
2022/08/29 06:20:23;;;;;;;4.18;2.20;;;19.90;60.10;;;;;;2270321;55;21088;-73
2022/08/29 06:22:50;;;;;;;4.32;2.20;;;19.90;60.00;;;;;;2263503;56;20968;-73
2022/08/29 06:25:16;;;;;;;5.60;2.42;;;19.90;60.10;;;;;;2381595;55;21012;-75
2022/08/29 06:28:01;;;;;;;4.87;2.67;;;19.90;60.10;;;;;;2264904;56;21016;-73
2022/08/29 06:30:30;;;;;;;4.72;2.10;;;19.90;60.10;;;;;;2360999;54;21415;-74
2022/08/29 06:32:56;;;;;;;3.83;2.22;;;19.90;60.10;;;;;;2266285;56;21096;-74
2022/08/29 06:35:25;;;;;;;5.05;2.25;;;20.00;60.30;;;;;;2262913;56;21007;-73
2022/08/29 06:37:53;;;;;;;5.37;2.55;;;20.00;60.40;;;;;;2266921;55;20920;-73
2022/08/29 06:40:19;;;;;;;4.85;2.58;;;20.00;60.30;;;;;;2265312;55;21043;-73
2022/08/29 06:42:45;;;;;;;4.80;2.55;;;20.00;60.40;;;;;;2432462;55;20971;-74
2022/08/29 06:45:11;;;;;;;6.85;2.42;;;20.00;60.40;;;;;;2488072;55;21434;-72
2022/08/29 06:47:38;;;;;;;3.53;2.00;;;20.10;60.50;;;;;;2266310;55;21076;-73
2022/08/29 06:50:05;;;;;;;4.15;2.00;;;20.10;60.50;;;;;;2265134;56;21113;-73
2022/08/29 06:52:31;;;;;;;6.25;2.30;;;20.10;60.50;;;;;;2264691;55;20963;-74
2022/08/29 06:54:58;;;;;;;3.85;2.28;;;20.20;60.60;;;;;;2415132;55;21773;-73
2022/08/29 06:57:25;;;;;;;4.50;2.40;;;20.20;60.50;;;;;;2276480;55;20949;-76
2022/08/29 06:59:53;;;;;;;3.55;2.20;;;20.20;60.50;;;;;;2255613;56;21225;-74
2022/08/29 07:02:19;;;;;;;5.85;2.72;;;20.20;60.60;;;;;;2261321;56;20993;-73
2022/08/29 07:04:47;;;;;;;6.10;2.53;;;20.30;60.70;;;;;;2264830;55;21028;-73
2022/08/29 07:07:13;;;;;;;4.37;2.10;;;20.30;60.70;;;;;;2262552;55;20999;-73
2022/08/29 07:09:43;;;;;;;4.57;2.22;;;20.40;60.80;;;;;;2261769;55;20944;-72
2022/08/29 07:12:09;;;;;;;4.80;2.28;;;20.40;60.80;;;;;;2266319;56;21112;-74
2022/08/29 07:14:35;;;;;;;4.12;2.05;;;20.40;60.60;;;;;;2263526;55;21150;-74
2022/08/29 07:17:07;;;;;;;4.05;1.83;;;20.50;60.60;;;;;;2328523;55;21813;-75
2022/08/29 07:19:33;;;;;;;3.97;2.08;;;20.50;60.60;;;;;;2263906;56;20943;-74
2022/08/29 07:21:59;;;;;;;3.83;2.37;;;20.60;60.80;;;;;;2266000;55;20955;-74
2022/08/29 07:24:26;;;;;;;5.62;2.78;;;20.60;60.80;;;;;;2269198;56;20928;-72
2022/08/29 07:26:53;;;;;;;4.97;2.53;;;20.70;61.10;;;;;;2261687;55;21000;-70
2022/08/29 07:29:20;;;;;;;6.10;2.62;;;20.70;61.20;;;;;;2287336;55;20932;-72
2022/08/29 07:31:47;;;;;;;5.47;3.05;;;20.80;61.30;;;;;;2265233;55;20988;-72
2022/08/29 07:34:13;;;;;;;5.03;2.78;;;20.90;61.30;;;;;;2271479;55;21036;-74
2022/08/29 07:36:40;;;;;;;4.40;2.60;;;20.90;61.30;;;;;;2264530;56;20932;-71
2022/08/29 07:39:11;;;;;;;5.25;2.83;;;21.00;61.30;;;;;;2263639;55;20975;-72
2022/08/29 07:41:46;;;;;;;4.65;2.67;;;21.10;61.40;;;;;;2267149;55;21012;-72
2022/08/29 07:44:12;;;;;;;5.43;2.60;;;21.10;61.40;;;;;;2264490;55;21532;-74
2022/08/29 07:46:39;;;;;;;5.25;2.72;;;21.20;61.50;;;;;;2265268;56;21025;-72
2022/08/29 07:49:06;;;;;;;4.93;2.80;;;21.20;61.30;;;;;;2365834;54;20988;-71
2022/08/29 07:51:32;;;;;;;4.82;2.62;;;21.30;61.40;;;;;;2268557;56;21008;-72
2022/08/29 07:54:00;;;;;;;6.00;2.90;;;21.40;61.40;;;;;;2262423;56;21023;-73
2022/08/29 07:56:31;;;;;;;4.25;2.35;;;21.50;61.50;;;;;;2423878;55;21045;-74
2022/08/29 07:59:00;;;;;;;4.53;2.62;;;21.60;61.40;;;;;;2490938;55;20987;-73
2022/08/29 08:01:26;;;;;;;4.45;2.42;;;21.70;61.40;;;;;;2403250;54;20953;-71
2022/08/29 08:03:53;;;;;;;4.07;2.35;;;21.70;61.30;;;;;;2261528;56;21398;-72
2022/08/29 08:06:21;;;;;;;4.65;2.30;;;21.80;61.30;;;;;;2383669;54;20944;-73
2022/08/29 08:08:49;;;;;;;3.87;2.30;;;21.90;61.30;;;;;;2351056;55;21493;-73
2022/08/29 08:11:15;;;;;;;4.10;2.50;;;22.00;61.30;;;;;;2485199;54;20916;-71
2022/08/29 08:13:41;;;;;;;4.68;2.22;;;22.10;61.40;;;;;;2265593;55;20960;-71
2022/08/29 08:16:12;;;;;;;6.12;2.10;;;22.20;61.40;;;;;;2487461;55;20917;-72
2022/08/29 08:18:39;;;;;;;3.30;1.87;;;22.30;61.50;;;;;;2266812;55;21090;-71
2022/08/29 08:21:05;;;;;;;3.45;2.10;;;22.40;61.40;;;;;;2268374;55;21774;-73
2022/08/29 08:23:33;;;;;;;3.78;2.37;;;22.50;61.40;;;;;;2267998;55;21524;-71
2022/08/29 08:25:59;;;;;;;5.47;2.37;;;22.60;61.40;;;;;;2260090;56;20990;-72
2022/08/29 08:28:27;;;;;;;4.43;2.70;;;22.60;61.20;;;;;;2269319;55;20969;-72
2022/08/29 08:30:54;;;;;;;4.72;3.00;;;22.70;61.00;;;;;;2262937;56;21004;-71
2022/08/29 08:33:20;;;;;;;4.95;2.87;;;22.90;61.00;;;;;;2273924;55;21815;-72
2022/08/29 08:35:46;;;;;;;4.28;2.60;;;22.90;60.80;;;;;;2268761;55;21019;-72
2022/08/29 08:38:15;;;;;;;4.85;2.80;;;23.00;60.80;;;;;;2265397;56;21036;-72
2022/08/29 08:41:34;;;;;;;5.35;2.65;;;23.10;60.60;;;;;;2266927;55;21677;-72
2022/08/29 08:44:06;;;;;;;6.55;2.30;;;23.20;60.00;;;;;;2347068;55;20936;-74
2022/08/29 08:46:46;;;;;;;5.00;2.10;;;23.30;60.30;;;;;;2266997;55;21757;-73
2022/08/29 08:49:18;;;;;;;4.25;2.30;;;23.30;59.80;;;;;;2262204;55;21712;-72
2022/08/29 08:51:51;;;;;;;4.95;2.00;;;23.40;59.80;;;;;;2270445;56;21748;-72
2022/08/29 08:54:23;;;;;;;4.75;2.00;;;23.50;59.60;;;;;;2265512;56;20957;-72
2022/08/29 08:57:05;;;;;;;3.65;2.20;;;23.50;59.60;;;;;;2262191;55;21486;-72
2022/08/29 08:59:41;;;;;;;3.08;1.87;;;23.60;59.30;;;;;;2264025;55;20972;-72
2022/08/29 09:03:49;;;;;;;4.75;2.28;;;23.60;59.50;;;;;;2272889;55;21071;-72
2022/08/29 09:06:51;;;;;;;3.95;1.85;;;23.70;59.20;;;;;;2261861;55;21857;-72
2022/08/29 09:10:11;;;;;;;4.12;1.90;;;23.80;59.20;;;;;;2318887;55;20920;-72
2022/08/29 09:13:10;;;;;;;5.45;1.75;;;23.90;59.00;;;;;;2266698;56;21767;-72
2022/08/29 09:15:46;;;;;;;3.10;1.70;;;24.00;59.30;;;;;;2263877;55;20924;-72
2022/08/29 09:18:39;;;;;;;4.10;2.17;;;24.10;59.30;;;;;;2268917;55;21120;-73
2022/08/29 09:21:17;;;;;;;3.70;1.80;;;24.10;59.00;;;;;;2263254;56;20989;-72
2022/08/29 09:24:05;;;;;;;3.47;2.00;;;24.20;59.30;;;;;;2264324;55;20964;-74
2022/08/29 09:26:31;;;;;;;3.78;1.90;;;24.30;59.30;;;;;;2270654;55;21024;-74
2022/08/29 09:29:00;;;;;;;9.20;2.50;;;24.40;59.30;;;;;;2261693;56;21445;-74
2022/08/29 09:31:28;;;;;;;5.78;2.47;;;24.40;59.20;;;;;;2409739;55;20969;-75
2022/08/29 09:34:02;;;;;;;5.82;2.42;;;24.50;59.10;;;;;;2348506;54;20985;-73
2022/08/29 09:38:22;;;;;;;5.82;2.80;;;24.50;58.80;;;;;;2260828;56;20956;-72
2022/08/29 09:41:03;;;;;;;3.12;1.77;;;24.60;58.60;;;;;;2446247;55;21933;-72
2022/08/29 09:44:32;;;;;;;3.10;1.80;;;24.70;58.80;;;;;;2263319;55;21024;-72
2022/08/29 09:47:11;;;;;;;5.35;1.83;;;24.80;58.40;;;;;;2264461;56;20996;-75
2022/08/29 09:50:17;;;;;;;6.97;2.30;;;24.90;58.40;;;;;;2263235;56;20968;-72
2022/08/29 09:53:00;;;;;;;3.95;2.00;;;25.00;58.10;;;;;;2272366;55;20980;-73
2022/08/29 09:55:43;;;;;;;4.43;2.08;;;25.00;58.20;;;;;;2264863;56;21440;-72
2022/08/29 09:58:44;;;;;;;10.20;2.40;;;25.10;58.20;;;;;;2266493;55;20971;-72
2022/08/29 10:01:19;;;;;;;4.65;2.10;;;25.20;58.10;;;;;;2267021;55;20937;-72
2022/08/29 10:03:57;;;;;;;3.10;1.67;;;25.30;58.40;;;;;;2407393;55;20992;-72
2022/08/29 10:06:28;;;;;;;4.80;2.05;;;25.30;58.10;;;;;;2264153;55;20940;-72
2022/08/29 10:09:00;;;;;;;4.50;2.03;;;25.40;58.40;;;;;;2265342;56;20948;-73
2022/08/29 10:11:48;;;;;;;4.20;2.35;;;25.50;58.10;;;;;;2246867;56;20924;-73
2022/08/29 10:14:29;;;;;;;3.83;1.90;;;25.60;57.40;;;;;;2437595;55;21839;-72
2022/08/29 10:18:19;;;;;;;4.05;2.08;;;25.70;57.70;;;;;;2264611;56;20949;-76
2022/08/29 10:24:06;;;;;;;4.60;1.83;;;25.70;57.50;;;;;;2265185;55;20971;-73
2022/08/29 10:39:53;;;;;;;3.50;1.85;;;26.00;57.30;;;;;;2350886;55;21012;-73
2022/08/29 10:42:20;;;;;;;3.40;1.67;;;26.50;57.60;;;;;;2416943;55;21012;-72
2022/08/29 10:47:29;;;;;;;3.87;2.40;;;26.50;57.40;;;;;;2360628;54;21067;-73
2022/08/29 10:52:58;;;;;;;3.85;1.90;;;26.70;57.10;;;;;;2263801;55;20980;-74
2022/08/29 10:55:39;;;;;;;5.87;2.42;;;26.90;57.20;;;;;;2270334;55;20972;-75
2022/08/29 10:58:30;;;;;;;4.65;2.25;;;26.90;56.50;;;;;;2277047;55;21004;-73
2022/08/29 11:01:16;;;;;;;3.95;2.35;;;27.00;56.50;;;;;;2271484;55;20981;-73
2022/08/29 11:04:35;;;;;;;5.35;2.58;;;27.20;56.50;;;;;;2264523;56;20977;-73
2022/08/29 11:07:20;;;;;;;3.97;2.35;;;27.30;56.20;;;;;;2265453;55;21104;-72
2022/08/29 11:09:53;;;;;;;3.75;2.20;;;27.30;56.00;;;;;;2246437;56;21135;-73
2022/08/29 11:12:44;;;;;;;5.00;2.60;;;27.40;56.50;;;;;;2263286;56;21850;-72
2022/08/29 11:17:55;;;;;;;4.18;2.53;;;27.50;55.70;;;;;;2487938;54;21863;-75
2022/08/29 11:20:25;;;;;;;3.65;2.15;;;27.80;56.40;;;;;;2267756;55;21021;-73
2022/08/29 11:23:08;;;;;;;3.92;2.10;;;27.80;56.00;;;;;;2471067;55;20948;-72
2022/08/29 11:25:34;;;;;;;3.80;1.92;;;27.90;55.30;;;;;;2265982;55;20993;-73
2022/08/29 11:30:57;;;;;;;4.93;2.37;;;28.00;55.70;;;;;;2482422;55;21858;-72
2022/08/29 11:35:04;;;;;;;3.78;2.28;;;28.10;55.10;;;;;;2246780;56;21091;-72
2022/08/29 11:40:36;;;;;;;6.87;2.20;;;28.30;54.80;;;;;;2259762;55;20970;-73
2022/08/29 11:43:43;;;;;;;3.35;1.90;;;28.40;54.40;;;;;;2493783;55;21032;-72
2022/08/29 11:46:10;;;;;;;4.47;2.33;;;28.50;54.60;;;;;;2268935;56;20989;-74
2022/08/29 11:48:41;;;;;;;5.20;2.37;;;28.60;54.50;;;;;;2368892;55;20921;-72
2022/08/29 11:51:36;;;;;;;4.40;2.30;;;28.60;54.00;;;;;;2261322;56;20986;-73
2022/08/29 11:55:51;;;;;;;3.67;2.03;;;28.70;52.80;;;;;;2269178;55;21472;-73
2022/08/29 11:59:03;;;;;;;3.53;1.90;;;28.80;52.70;;;;;;2350331;55;20965;-74
2022/08/29 12:02:02;;;;;;;3.05;1.90;;;28.90;53.10;;;;;;2487435;55;20991;-75
2022/08/29 12:06:09;;;;;;;3.20;1.95;;;29.00;52.70;;;;;;2461699;55;21287;-72
2022/08/29 12:08:38;;;;;;;4.20;2.30;;;29.10;53.00;;;;;;2269602;55;20929;-73
2022/08/29 12:11:05;;;;;;;4.75;2.70;;;29.10;52.90;;;;;;2483601;55;21818;-73
2022/08/29 12:17:04;;;;;;;4.55;2.80;;;29.20;52.50;;;;;;2261438;56;21932;-72
2022/08/29 12:28:11;;;;;;;4.45;2.00;;;29.40;52.60;;;;;;2268610;55;21048;-75
2022/08/29 12:30:40;;;;;;;3.17;1.60;;;29.60;52.60;;;;;;2270945;55;20972;-72
2022/08/29 12:40:17;;;;;;;3.83;2.05;;;29.70;52.10;;;;;;2260767;56;21881;-72
2022/08/29 12:44:15;;;;;;;3.37;1.65;;;29.70;51.30;;;;;;2266985;55;21029;-75
2022/08/29 12:46:47;;;;;;;3.75;2.00;;;29.90;51.50;;;;;;2266618;55;21015;-72
2022/08/29 12:49:30;;;;;;;3.30;1.80;;;30.00;51.80;;;;;;2262417;56;21489;-72
2022/08/29 12:52:00;;;;;;;3.75;2.10;;;30.00;51.40;;;;;;2487377;55;21488;-72
2022/08/29 12:54:40;;;;;;;4.20;2.30;;;30.10;51.50;;;;;;2406999;55;20913;-72
2022/08/29 12:57:17;;;;;;;3.75;2.05;;;30.10;50.60;;;;;;2269208;56;21931;-72
2022/08/29 12:59:47;;;;;;;4.65;2.50;;;30.20;50.90;;;;;;2261799;55;21083;-74
2022/08/29 13:02:28;;;;;;;3.60;2.00;;;30.20;50.50;;;;;;2262721;56;21060;-72
2022/08/29 13:04:55;;;;;;;3.95;2.10;;;30.30;49.80;;;;;;2493074;55;20963;-74
2022/08/29 13:07:21;;;;;;;4.20;2.20;;;30.30;50.10;;;;;;2265986;55;20936;-72
2022/08/29 13:09:58;;;;;;;4.10;2.00;;;30.30;49.90;;;;;;2483835;55;21035;-72
2022/08/29 13:12:31;;;;;;;4.07;2.17;;;30.40;49.40;;;;;;2265542;55;21285;-72
2022/08/29 13:14:59;;;;;;;4.93;2.10;;;30.40;49.30;;;;;;2263180;55;20938;-72
2022/08/29 13:17:29;;;;;;;3.60;2.20;;;30.50;49.40;;;;;;2265092;55;21156;-74
2022/08/29 13:20:32;;;;;;;3.75;2.10;;;30.50;49.30;;;;;;2260021;56;21024;-73
2022/08/29 13:23:18;;;;;;;3.83;2.03;;;30.50;48.50;;;;;;2260599;56;20940;-72
2022/08/29 13:26:05;;;;;;;3.45;2.00;;;30.60;48.40;;;;;;2264310;55;21019;-73
2022/08/29 13:28:45;;;;;;;3.30;2.10;;;30.70;48.50;;;;;;2265498;55;21040;-72
2022/08/29 13:31:22;;;;;;;3.92;2.53;;;30.70;48.20;;;;;;2261763;56;21921;-71
2022/08/29 13:34:33;;;;;;;4.80;2.50;;;30.80;48.00;;;;;;2246239;56;20960;-71
2022/08/29 13:37:05;;;;;;;3.83;1.90;;;30.80;47.70;;;;;;2269031;56;21022;-73
2022/08/29 13:39:36;;;;;;;4.20;2.30;;;30.80;48.40;;;;;;2265124;56;20996;-72
2022/08/29 13:42:13;;;;;;;3.35;2.10;;;30.80;48.10;;;;;;2260214;55;21579;-73
2022/08/29 13:45:39;;;;;;;3.80;2.28;;;30.90;48.30;;;;;;2266423;55;21124;-72
2022/08/29 13:48:17;;;;;;;4.70;2.10;;;31.00;48.30;;;;;;2266175;56;20982;-72
2022/08/29 13:50:43;;;;;;;3.90;2.22;;;31.00;47.70;;;;;;2267428;56;21060;-72
2022/08/29 13:53:10;;;;;;;4.20;2.20;;;31.00;48.00;;;;;;2264323;56;20952;-72
2022/08/29 13:55:39;;;;;;;4.32;2.30;;;31.10;48.10;;;;;;2265588;56;20958;-74
2022/08/29 13:58:05;;;;;;;4.15;1.98;;;31.10;47.80;;;;;;2262482;56;21047;-72
2022/08/29 14:00:32;;;;;;;3.42;1.92;;;31.20;47.90;;;;;;2268250;56;21021;-72
2022/08/29 14:03:00;;;;;;;4.07;2.20;;;31.20;47.70;;;;;;2263637;55;21281;-72
2022/08/29 14:05:26;;;;;;;4.37;2.40;;;31.30;47.50;;;;;;2267413;55;21000;-72
2022/08/29 14:07:53;;;;;;;3.58;2.03;;;31.30;47.70;;;;;;2261394;56;21527;-72
2022/08/29 14:10:21;;;;;;;3.75;2.10;;;31.40;47.60;;;;;;2264768;56;20996;-72